UIBB

Bratsk Airport

Bratsk, Russian Federation
TAF UIBB 200800Z 2009/2109 25006MPS 9999 BKN020CB
Issued Valid From Valid To
Jan-20 @ 08:00 UTC
(4 hours ago)
Jan-20 @ 09:00 UTC
(3 hours ago)
Jan-21 @ 09:00 UTC
(in 21 hours)
Jan-20 @ 09:00 to Jan-21 @ 09:00
TAF UIBB 200800Z 2009/2109 25006MPS 9999 BKN020CB
Wind Visibility Clouds
250° at 12 knots 10,000+ meters
  • Broken at 2,000' AGL
TAF UIBB 200800Z 2009/2109 25006MPS 9999 BKN020CB
Issued Jan-20 @ 08:00 UTC
(4 hours ago)
Valid From Jan-20 @ 09:00 UTC
(3 hours ago)
Valid To Jan-21 @ 09:00 UTC
(in 21 hours)
Jan-20 @ 09:00 - Jan-21 @ 09:00
Wind Visibility
250° at 12 knots 10,000+ meters
Clouds
  • Broken at 2,000' AGL